createdAt,value
2019-03-22T00:00:44.228Z,7.70
2019-03-22T00:01:44.234Z,7.69
2019-03-22T00:02:44.227Z,7.70
2019-03-22T00:03:44.104Z,7.64
2019-03-22T00:04:44.107Z,7.77
2019-03-22T00:05:44.068Z,7.77
2019-03-22T00:06:43.985Z,7.72
2019-03-22T00:07:43.986Z,7.70
2019-03-22T00:08:43.870Z,7.62
2019-03-22T00:09:43.869Z,7.62
2019-03-22T00:10:43.826Z,7.62
2019-03-22T00:11:43.744Z,7.61
2019-03-22T00:12:43.745Z,7.58
2019-03-22T00:13:43.625Z,7.64
2019-03-22T00:14:43.626Z,7.56
2019-03-22T00:15:43.584Z,7.55
2019-03-22T00:16:43.507Z,7.51
2019-03-22T00:17:43.503Z,7.56
2019-03-22T00:18:43.383Z,7.56
2019-03-22T00:19:43.387Z,7.56
2019-03-22T00:20:43.381Z,7.56
2019-03-22T00:21:43.262Z,7.51
2019-03-22T00:22:43.265Z,7.58
2019-03-22T00:23:43.145Z,7.55
2019-03-22T00:24:43.141Z,7.58
2019-03-22T00:25:43.142Z,7.56
2019-03-22T00:26:43.076Z,7.56
2019-03-22T00:27:43.024Z,7.56
2019-03-22T00:28:42.904Z,7.56
2019-03-22T00:29:42.902Z,7.55
2019-03-22T00:30:42.901Z,7.58
2019-03-22T00:31:42.778Z,7.55
2019-03-22T00:32:42.778Z,7.61
2019-03-22T00:33:42.661Z,7.55
2019-03-22T00:34:42.673Z,7.53
2019-03-22T00:35:42.659Z,7.56
2019-03-22T00:36:42.546Z,7.53
2019-03-22T00:37:42.570Z,7.53
2019-03-22T00:38:42.418Z,7.53
2019-03-22T00:39:42.418Z,7.62
2019-03-22T00:40:42.419Z,7.53
2019-03-22T00:41:42.296Z,7.55
2019-03-22T00:42:42.299Z,7.64
2019-03-22T00:43:42.185Z,7.56
2019-03-22T00:44:42.176Z,7.61
2019-03-22T00:45:42.177Z,7.64
2019-03-22T00:46:42.055Z,7.64
2019-03-22T00:47:42.057Z,7.61
2019-03-22T00:48:41.940Z,7.74
2019-03-22T00:49:41.937Z,7.61
2019-03-22T00:50:41.933Z,7.59
2019-03-22T00:51:41.818Z,7.74
2019-03-22T00:52:41.813Z,7.53
2019-03-22T00:53:41.697Z,7.74
2019-03-22T00:54:41.697Z,7.55
2019-03-22T00:55:41.694Z,7.72
2019-03-22T00:56:41.573Z,7.55
2019-03-22T00:57:41.573Z,7.56
2019-03-22T00:58:41.453Z,7.75
2019-03-22T00:59:41.458Z,7.58
2019-03-22T01:00:41.452Z,7.74
2019-03-22T01:01:41.333Z,7.74
2019-03-22T01:02:41.337Z,7.77
2019-03-22T01:03:41.214Z,7.59
2019-03-22T01:04:41.214Z,7.53
2019-03-22T01:05:41.216Z,7.72
2019-03-22T01:06:41.095Z,7.61
2019-03-22T01:07:41.100Z,7.58
2019-03-22T01:08:40.976Z,7.72
2019-03-22T01:09:40.970Z,7.74
2019-03-22T01:10:40.975Z,7.66
2019-03-22T01:11:40.854Z,7.78
2019-03-22T01:12:40.853Z,7.61
2019-03-22T01:13:40.729Z,7.77
2019-03-22T01:14:40.731Z,7.61
2019-03-22T01:15:40.733Z,7.62
2019-03-22T01:16:40.609Z,7.62
2019-03-22T01:17:40.611Z,7.74
2019-03-22T01:18:40.488Z,7.75
2019-03-22T01:19:40.490Z,7.69
2019-03-22T01:20:40.486Z,7.78
2019-03-22T01:21:40.375Z,7.78
2019-03-22T01:22:40.368Z,7.72
2019-03-22T01:23:40.251Z,7.62
2019-03-22T01:24:40.254Z,7.64
2019-03-22T01:25:40.249Z,7.66
2019-03-22T01:26:40.128Z,7.72
2019-03-22T01:27:41.283Z,7.75
2019-03-22T01:28:40.011Z,7.75
2019-03-22T01:29:40.014Z,7.69
2019-03-22T01:30:40.009Z,7.70
2019-03-22T01:31:39.889Z,7.80
2019-03-22T01:32:39.889Z,7.72
2019-03-22T01:33:39.849Z,7.67
2019-03-22T01:34:39.765Z,7.70
2019-03-22T01:35:39.774Z,7.81
2019-03-22T01:36:39.654Z,7.67
2019-03-22T01:37:39.647Z,7.70
2019-03-22T01:38:39.608Z,7.72
2019-03-22T01:39:39.526Z,7.74
2019-03-22T01:40:39.526Z,7.70
2019-03-22T01:41:39.410Z,7.80
2019-03-22T01:42:39.409Z,7.62
2019-03-22T01:43:39.406Z,7.62
2019-03-22T01:44:39.289Z,7.64
2019-03-22T01:45:39.285Z,7.77
2019-03-22T01:46:39.166Z,7.80
2019-03-22T01:47:39.164Z,7.75
2019-03-22T01:48:39.169Z,7.83
2019-03-22T01:49:39.050Z,7.72
2019-03-22T01:50:39.045Z,7.74
2019-03-22T01:51:38.924Z,7.66
2019-03-22T01:52:38.923Z,7.77
2019-03-22T01:53:38.919Z,7.70
2019-03-22T01:54:38.804Z,7.70
2019-03-22T01:55:38.801Z,7.70
2019-03-22T01:56:38.682Z,7.72
2019-03-22T01:57:38.683Z,7.62
2019-03-22T01:58:38.684Z,7.69
2019-03-22T01:59:38.561Z,7.67
2019-03-22T02:00:38.563Z,7.74
2019-03-22T02:01:38.445Z,7.77
2019-03-22T02:02:38.441Z,7.75
2019-03-22T02:03:38.439Z,7.72
2019-03-22T02:04:38.321Z,7.72
2019-03-22T02:05:38.320Z,7.70
2019-03-22T02:06:38.199Z,7.75
2019-03-22T02:07:38.205Z,7.80
2019-03-22T02:08:38.201Z,7.77
2019-03-22T02:09:38.083Z,7.75
2019-03-22T02:10:38.079Z,7.87
2019-03-22T02:11:37.957Z,7.84
2019-03-22T02:12:37.963Z,7.72
2019-03-22T02:13:37.959Z,7.78
2019-03-22T02:14:37.836Z,7.81
2019-03-22T02:15:37.836Z,7.81
2019-03-22T02:16:37.718Z,7.78
2019-03-22T02:17:37.715Z,7.81
2019-03-22T02:18:37.718Z,7.75
2019-03-22T02:19:37.599Z,7.78
2019-03-22T02:20:37.595Z,7.87
2019-03-22T02:21:37.480Z,7.85
2019-03-22T02:22:37.477Z,7.88
2019-03-22T02:23:37.478Z,7.81
2019-03-22T02:24:37.358Z,7.85
2019-03-22T02:25:37.356Z,7.84
2019-03-22T02:26:37.234Z,7.84
2019-03-22T02:27:37.237Z,7.87
2019-03-22T02:28:37.239Z,7.90
2019-03-22T02:29:37.113Z,7.93
2019-03-22T02:30:37.127Z,7.95
2019-03-22T02:31:36.999Z,7.96
2019-03-22T02:32:36.999Z,7.90
2019-03-22T02:33:36.997Z,7.99
2019-03-22T02:34:36.873Z,7.99
2019-03-22T02:35:36.872Z,7.98
2019-03-22T02:36:36.773Z,8.01
2019-03-22T02:37:36.756Z,7.99
2019-03-22T02:38:36.654Z,7.95
2019-03-22T02:39:36.658Z,7.99
2019-03-22T02:40:36.567Z,8.01
2019-03-22T02:41:36.512Z,8.01
2019-03-22T02:42:36.473Z,7.91
2019-03-22T02:43:36.415Z,8.05
2019-03-22T02:44:36.374Z,7.90
2019-03-22T02:45:36.322Z,7.99
2019-03-22T02:46:36.276Z,7.96
2019-03-22T02:47:36.240Z,7.98
2019-03-22T02:48:36.177Z,7.96
2019-03-22T02:49:36.129Z,7.90
2019-03-22T02:50:36.078Z,7.96
2019-03-22T02:51:36.038Z,7.98
2019-03-22T02:52:35.990Z,7.93
2019-03-22T02:53:35.938Z,7.98
2019-03-22T02:54:35.894Z,7.95
2019-03-22T02:55:35.843Z,7.90
2019-03-22T02:56:35.797Z,7.96
2019-03-22T02:57:35.745Z,7.96
2019-03-22T02:58:35.705Z,7.95
2019-03-22T02:59:35.705Z,7.96
2019-03-22T03:00:35.694Z,8.03
2019-03-22T03:01:35.595Z,7.98
2019-03-22T03:02:35.598Z,7.98
2019-03-22T03:03:35.457Z,7.96
2019-03-22T03:04:35.409Z,7.99
2019-03-22T03:05:35.365Z,7.98
2019-03-22T03:06:35.315Z,7.95
2019-03-22T03:07:35.278Z,7.99
2019-03-22T03:08:35.226Z,7.95
2019-03-22T03:09:35.172Z,7.95
2019-03-22T03:10:35.127Z,7.98
2019-03-22T03:11:35.077Z,7.93
2019-03-22T03:12:35.029Z,7.96
2019-03-22T03:13:34.982Z,7.96
2019-03-22T03:14:34.935Z,7.93
2019-03-22T03:15:34.901Z,7.98
2019-03-22T03:16:34.843Z,7.95
2019-03-22T03:17:34.793Z,7.91
2019-03-22T03:18:34.745Z,7.90
2019-03-22T03:19:34.696Z,7.90
2019-03-22T03:20:34.650Z,7.88
2019-03-22T03:21:34.600Z,7.91
2019-03-22T03:22:34.568Z,7.88
2019-03-22T03:23:34.520Z,7.88
2019-03-22T03:24:34.456Z,7.90
2019-03-22T03:25:34.415Z,7.90
2019-03-22T03:26:34.361Z,7.87
2019-03-22T03:27:34.311Z,7.91
2019-03-22T03:28:37.005Z,7.78
2019-03-22T03:29:34.216Z,7.90
2019-03-22T03:30:34.171Z,7.85
2019-03-22T03:31:34.125Z,7.84
2019-03-22T03:32:34.072Z,7.85
2019-03-22T03:33:34.051Z,7.87
2019-03-22T03:34:33.974Z,7.83
2019-03-22T03:35:33.929Z,7.78
2019-03-22T03:36:35.012Z,7.78
2019-03-22T03:37:33.831Z,7.78
2019-03-22T03:38:33.787Z,7.78
2019-03-22T03:39:33.739Z,7.75
2019-03-22T03:40:33.689Z,7.75
2019-03-22T03:41:33.648Z,7.75
2019-03-22T03:42:33.590Z,7.75
2019-03-22T03:43:33.553Z,7.77
2019-03-22T03:44:33.497Z,7.77
2019-03-22T03:45:33.494Z,7.70
2019-03-22T03:46:33.401Z,7.77
2019-03-22T03:47:33.353Z,7.75
2019-03-22T03:48:33.326Z,7.74
2019-03-22T03:49:33.264Z,7.67
2019-03-22T03:50:33.208Z,7.78
2019-03-22T03:51:33.158Z,7.74
2019-03-22T03:52:33.122Z,7.70
2019-03-22T03:53:33.066Z,7.80
2019-03-22T03:54:33.023Z,7.74
2019-03-22T03:55:33.068Z,7.75
2019-03-22T03:56:32.925Z,7.72
2019-03-22T03:57:32.871Z,7.70
2019-03-22T03:58:32.825Z,7.70
2019-03-22T03:59:32.776Z,7.70
2019-03-22T04:00:32.739Z,7.64
2019-03-22T04:01:32.685Z,7.69
2019-03-22T04:02:32.640Z,7.78
2019-03-22T04:03:32.589Z,7.70
2019-03-22T04:04:32.539Z,7.75
2019-03-22T04:05:32.501Z,7.64
2019-03-22T04:06:32.441Z,7.67
2019-03-22T04:07:32.398Z,7.61
2019-03-22T04:08:32.345Z,7.75
2019-03-22T04:09:32.303Z,7.77
2019-03-22T04:10:32.251Z,7.66
2019-03-22T04:11:32.204Z,7.75
2019-03-22T04:12:32.158Z,7.66
2019-03-22T04:13:32.110Z,7.72
2019-03-22T04:14:32.062Z,7.59
2019-03-22T04:15:32.015Z,7.77
2019-03-22T04:16:31.961Z,7.72
2019-03-22T04:17:31.911Z,7.72
2019-03-22T04:18:31.868Z,7.72
2019-03-22T04:19:31.819Z,7.69
2019-03-22T04:20:31.773Z,7.78
2019-03-22T04:21:31.727Z,7.75
2019-03-22T04:22:31.682Z,7.59
2019-03-22T04:23:31.636Z,7.75
2019-03-22T04:24:31.588Z,7.77
2019-03-22T04:25:31.529Z,7.70
2019-03-22T04:26:31.486Z,7.72
2019-03-22T04:27:31.434Z,7.75
2019-03-22T04:28:31.386Z,7.67
2019-03-22T04:29:31.340Z,7.58
2019-03-22T04:30:31.291Z,7.62
2019-03-22T04:31:31.243Z,7.67
2019-03-22T04:32:31.192Z,7.59
2019-03-22T04:33:31.146Z,7.59
2019-03-22T04:34:31.099Z,7.58
2019-03-22T04:35:31.054Z,7.61
2019-03-22T04:36:31.021Z,7.61
2019-03-22T04:37:30.954Z,7.56
2019-03-22T04:38:30.913Z,7.53
2019-03-22T04:39:30.862Z,7.47
2019-03-22T04:40:30.811Z,7.50
2019-03-22T04:41:30.763Z,7.47
2019-03-22T04:42:30.721Z,7.44
2019-03-22T04:43:30.666Z,7.47
2019-03-22T04:44:30.630Z,7.44
2019-03-22T04:45:30.571Z,7.47
2019-03-22T04:46:30.525Z,7.44
2019-03-22T04:47:30.471Z,7.43
2019-03-22T04:48:30.427Z,7.41
2019-03-22T04:49:30.376Z,7.46
2019-03-22T04:50:30.334Z,7.50
2019-03-22T04:51:30.282Z,7.40
2019-03-22T04:52:30.237Z,7.41
2019-03-22T04:53:30.183Z,7.43
2019-03-22T04:54:30.142Z,7.43
2019-03-22T04:55:30.091Z,7.33
2019-03-22T04:56:30.043Z,7.31
2019-03-22T04:57:29.993Z,7.33
2019-03-22T04:58:29.943Z,7.31
2019-03-22T04:59:29.897Z,7.36
2019-03-22T05:00:29.845Z,7.36
2019-03-22T05:01:29.805Z,7.29
2019-03-22T05:02:29.762Z,7.26
2019-03-22T05:03:29.702Z,7.28
2019-03-22T05:04:29.680Z,7.33
2019-03-22T05:05:29.608Z,7.26
2019-03-22T05:06:29.565Z,7.36
2019-03-22T05:07:29.512Z,7.28
2019-03-22T05:08:29.466Z,7.40
2019-03-22T05:09:29.421Z,7.28
2019-03-22T05:10:29.363Z,7.25
2019-03-22T05:11:29.322Z,7.23
2019-03-22T05:12:29.273Z,7.31
2019-03-22T05:13:29.244Z,7.26
2019-03-22T05:14:29.177Z,7.36
2019-03-22T05:15:29.226Z,7.25
2019-03-22T05:16:29.098Z,7.26
2019-03-22T05:17:29.100Z,7.23
2019-03-22T05:18:29.060Z,7.29
2019-03-22T05:19:28.980Z,7.23
2019-03-22T05:20:28.984Z,7.22
2019-03-22T05:21:28.875Z,7.14
2019-03-22T05:22:28.859Z,7.11
2019-03-22T05:23:28.854Z,7.21
2019-03-22T05:24:28.738Z,7.11
2019-03-22T05:25:28.735Z,7.14
2019-03-22T05:26:28.614Z,7.10
2019-03-22T05:27:28.618Z,7.13
2019-03-22T05:28:28.577Z,7.14
2019-03-22T05:29:30.965Z,7.15
2019-03-22T05:30:28.494Z,7.10
2019-03-22T05:31:28.376Z,7.13
2019-03-22T05:32:28.377Z,7.13
2019-03-22T05:33:28.336Z,7.07
2019-03-22T05:34:28.258Z,7.03
2019-03-22T05:35:28.257Z,7.10
2019-03-22T05:36:28.135Z,7.05
2019-03-22T05:37:28.136Z,7.07
2019-03-22T05:38:28.096Z,7.08
2019-03-22T05:39:28.016Z,7.00
2019-03-22T05:40:28.015Z,6.96
2019-03-22T05:41:27.892Z,7.00
2019-03-22T05:42:27.908Z,6.97
2019-03-22T05:43:27.853Z,7.01
2019-03-22T05:44:27.771Z,6.97
2019-03-22T05:45:27.770Z,6.87
2019-03-22T05:46:27.649Z,6.97
2019-03-22T05:47:27.650Z,7.00
2019-03-22T05:48:27.532Z,6.96
2019-03-22T05:49:27.531Z,7.00
2019-03-22T05:50:27.530Z,6.90
2019-03-22T05:51:27.411Z,6.95
2019-03-22T05:52:27.417Z,6.86
2019-03-22T05:53:27.292Z,6.89
2019-03-22T05:54:27.293Z,6.97
2019-03-22T05:55:27.288Z,6.90
2019-03-22T05:56:27.167Z,6.95
2019-03-22T05:57:27.175Z,6.96
2019-03-22T05:58:27.050Z,6.90
2019-03-22T05:59:27.050Z,6.87
2019-03-22T06:00:27.049Z,6.93
2019-03-22T06:01:26.931Z,6.92
2019-03-22T06:02:26.926Z,6.92
2019-03-22T06:03:26.809Z,6.92
2019-03-22T06:04:26.809Z,7.00
2019-03-22T06:05:26.807Z,6.85
2019-03-22T06:06:26.690Z,6.93
2019-03-22T06:07:26.690Z,6.95
2019-03-22T06:08:26.570Z,6.92
2019-03-22T06:09:26.571Z,6.96
2019-03-22T06:10:26.568Z,7.01
2019-03-22T06:11:26.449Z,6.96
2019-03-22T06:12:26.445Z,7.01
2019-03-22T06:13:26.327Z,6.95
2019-03-22T06:14:26.330Z,6.97
2019-03-22T06:15:26.327Z,7.00
2019-03-22T06:16:26.206Z,7.10
2019-03-22T06:17:26.204Z,7.00
2019-03-22T06:18:26.089Z,7.07
2019-03-22T06:19:26.090Z,7.07
2019-03-22T06:20:26.086Z,7.05
2019-03-22T06:21:25.970Z,7.04
2019-03-22T06:22:26.003Z,7.01
2019-03-22T06:23:25.844Z,7.01
2019-03-22T06:24:25.846Z,7.14
2019-03-22T06:25:25.846Z,7.13
2019-03-22T06:26:25.723Z,7.13
2019-03-22T06:27:25.729Z,7.18
2019-03-22T06:28:25.611Z,7.18
2019-03-22T06:29:25.684Z,7.19
2019-03-22T06:30:25.603Z,7.18
2019-03-22T06:31:25.491Z,7.22
2019-03-22T06:32:25.487Z,7.23
2019-03-22T06:33:25.360Z,7.31
2019-03-22T06:34:25.372Z,7.36
2019-03-22T06:35:25.366Z,7.22
2019-03-22T06:36:25.243Z,7.36
2019-03-22T06:37:25.268Z,7.29
2019-03-22T06:38:25.121Z,7.28
2019-03-22T06:39:25.145Z,7.39
2019-03-22T06:41:25.003Z,7.46
2019-03-22T06:42:24.999Z,7.48
2019-03-22T06:43:24.889Z,7.44
2019-03-22T06:44:24.880Z,7.48
2019-03-22T06:45:24.881Z,7.55
2019-03-22T06:46:24.763Z,7.59
2019-03-22T06:47:24.756Z,7.55
2019-03-22T06:48:24.640Z,7.64
2019-03-22T06:49:24.642Z,7.70
2019-03-22T06:50:24.641Z,7.66
2019-03-22T06:51:24.517Z,7.66
2019-03-22T06:52:24.516Z,7.72
2019-03-22T06:53:24.400Z,7.77
2019-03-22T06:54:31.641Z,7.78
2019-03-22T06:55:24.405Z,7.84
2019-03-22T06:56:24.277Z,7.88
2019-03-22T06:57:24.290Z,7.90
2019-03-22T06:58:24.396Z,7.95
2019-03-22T06:59:24.157Z,7.99
2019-03-22T07:00:24.154Z,8.03
2019-03-22T07:01:24.039Z,8.08
2019-03-22T07:02:24.039Z,8.16
2019-03-22T07:03:23.918Z,8.18
2019-03-22T07:04:23.916Z,8.18
2019-03-22T07:05:23.916Z,8.17
2019-03-22T07:06:23.796Z,8.18
2019-03-22T07:07:23.796Z,8.34
2019-03-22T07:08:23.682Z,8.35
2019-03-22T07:09:23.676Z,8.38
2019-03-22T07:10:23.673Z,8.45
2019-03-22T07:11:23.555Z,8.45
2019-03-22T07:12:23.555Z,8.53
2019-03-22T07:13:23.519Z,8.71
2019-03-22T07:14:23.437Z,8.66
2019-03-22T07:15:23.433Z,8.60
2019-03-22T07:16:23.310Z,8.61
2019-03-22T07:17:23.316Z,8.68
2019-03-22T07:18:23.278Z,8.64
2019-03-22T07:19:23.193Z,8.79
2019-03-22T07:20:23.193Z,8.77
2019-03-22T07:21:23.071Z,8.77
2019-03-22T07:22:23.071Z,8.82
2019-03-22T07:24:22.950Z,9.02
2019-03-22T07:25:22.954Z,9.09
2019-03-22T07:26:22.829Z,9.18
2019-03-22T07:27:22.830Z,9.15
2019-03-22T07:28:22.830Z,9.19
2019-03-22T07:29:22.709Z,9.19
2019-03-22T07:30:22.714Z,9.36
2019-03-22T07:31:22.590Z,9.34
2019-03-22T07:32:22.587Z,9.42
2019-03-22T07:33:22.590Z,9.33
2019-03-22T07:34:22.484Z,9.42
2019-03-22T07:35:22.472Z,9.52
2019-03-22T07:36:22.348Z,9.55
2019-03-22T07:37:22.349Z,9.51
2019-03-22T07:38:22.350Z,9.69
2019-03-22T07:39:22.230Z,9.66
2019-03-22T07:40:22.228Z,9.63
2019-03-22T07:41:22.106Z,9.80
2019-03-22T07:42:22.110Z,9.77
2019-03-22T07:43:22.105Z,9.81
2019-03-22T07:44:21.986Z,9.87
2019-03-22T07:45:22.063Z,9.91
2019-03-22T07:46:21.983Z,9.92
2019-03-22T07:47:21.867Z,10.03
2019-03-22T07:48:21.868Z,10.05
2019-03-22T07:49:21.751Z,10.18
2019-03-22T07:50:21.746Z,10.13
2019-03-22T07:51:21.746Z,10.24
2019-03-22T07:52:21.627Z,10.24
2019-03-22T07:53:21.627Z,10.28
2019-03-22T07:54:21.505Z,10.34
2019-03-22T07:55:21.507Z,10.36
2019-03-22T07:56:21.503Z,10.46
2019-03-22T07:57:21.385Z,10.46
2019-03-22T07:58:21.386Z,10.58
2019-03-22T07:59:21.268Z,10.58
2019-03-22T08:00:30.278Z,10.67
2019-03-22T08:01:21.263Z,10.75
2019-03-22T08:02:21.142Z,10.72
2019-03-22T08:03:21.145Z,10.87
2019-03-22T08:05:21.024Z,10.92
2019-03-22T08:08:20.908Z,11.00
2019-03-22T08:09:20.905Z,11.19
2019-03-22T08:11:20.838Z,11.37
2019-03-22T08:12:20.661Z,11.44
2019-03-22T08:13:20.660Z,11.44
2019-03-22T08:14:20.666Z,11.52
2019-03-22T08:15:20.542Z,11.48
2019-03-22T08:16:20.573Z,11.55
2019-03-22T08:17:20.535Z,11.65
2019-03-22T08:18:20.433Z,11.70
2019-03-22T08:19:20.420Z,11.74
2019-03-22T08:20:20.301Z,11.81
2019-03-22T08:21:20.298Z,11.91
2019-03-22T08:22:20.304Z,11.95
2019-03-22T08:23:20.181Z,12.07
2019-03-22T08:24:20.189Z,12.05
2019-03-22T08:25:20.060Z,12.11
2019-03-22T08:26:20.068Z,12.20
2019-03-22T08:27:20.080Z,12.26
2019-03-22T08:28:19.941Z,12.23
2019-03-22T08:29:19.967Z,12.28
2019-03-22T08:30:19.936Z,12.32
2019-03-22T08:31:19.826Z,12.40
2019-03-22T08:32:19.815Z,12.48
2019-03-22T08:33:19.697Z,12.63
2019-03-22T08:34:19.745Z,12.61
2019-03-22T08:35:19.696Z,12.55
2019-03-22T08:36:19.575Z,12.61
2019-03-22T08:37:19.614Z,12.65
2019-03-22T08:38:19.635Z,12.81
2019-03-22T08:39:19.469Z,12.87
2019-03-22T08:40:19.455Z,12.78
2019-03-22T08:41:19.392Z,12.87
2019-03-22T08:42:19.351Z,12.93
2019-03-22T08:43:19.335Z,13.02
2019-03-22T08:44:19.215Z,13.02
2019-03-22T08:45:19.256Z,13.12
2019-03-22T08:46:19.173Z,13.19
2019-03-22T08:47:19.333Z,13.30
2019-03-22T08:48:19.101Z,13.39
2019-03-22T08:49:19.028Z,13.43
2019-03-22T08:50:18.972Z,13.45
2019-03-22T08:51:19.019Z,13.52
2019-03-22T08:52:18.884Z,13.60
2019-03-22T08:53:18.879Z,13.67
2019-03-22T08:54:18.812Z,13.70
2019-03-22T08:55:18.815Z,13.70
2019-03-22T08:56:18.731Z,13.82
2019-03-22T08:57:18.617Z,13.97
2019-03-22T08:58:18.934Z,13.94
2019-03-22T08:59:18.634Z,14.01
2019-03-22T09:00:18.493Z,14.08
2019-03-22T09:01:18.494Z,14.08
2019-03-22T09:02:18.461Z,14.19
2019-03-22T09:03:18.375Z,14.33
2019-03-22T09:04:18.368Z,14.33
2019-03-22T09:05:18.265Z,14.36
2019-03-22T09:06:18.251Z,14.41
2019-03-22T09:07:18.249Z,14.48
2019-03-22T09:08:18.136Z,14.53
2019-03-22T09:09:18.127Z,14.59
2019-03-22T09:10:18.129Z,14.66
2019-03-22T09:11:18.307Z,14.74
2019-03-22T09:12:18.010Z,14.67
2019-03-22T09:13:17.932Z,14.74
2019-03-22T09:14:17.891Z,14.87
2019-03-22T09:15:17.897Z,14.92
2019-03-22T09:16:17.795Z,15.00
2019-03-22T09:17:17.816Z,14.99
2019-03-22T09:18:17.805Z,15.07
2019-03-22T09:19:17.646Z,15.15
2019-03-22T09:20:17.648Z,15.22
2019-03-22T09:21:17.542Z,15.27
2019-03-22T09:22:17.532Z,15.35
2019-03-22T09:23:17.529Z,15.44
2019-03-22T09:24:19.092Z,15.55
2019-03-22T09:25:17.424Z,15.48
2019-03-22T09:26:19.927Z,15.52
2019-03-22T09:27:17.282Z,15.59
2019-03-22T09:28:17.292Z,15.76
2019-03-22T09:29:17.283Z,15.76
2019-03-22T09:30:17.164Z,15.85
2019-03-22T09:31:17.163Z,15.91
2019-03-22T09:32:17.093Z,16.00
2019-03-22T09:33:17.068Z,16.16
2019-03-22T09:34:17.041Z,16.12
2019-03-22T09:35:16.967Z,16.21
2019-03-22T09:36:16.931Z,16.28
2019-03-22T09:37:16.935Z,16.40
2019-03-22T09:38:16.803Z,16.50
2019-03-22T09:39:16.812Z,16.49
2019-03-22T09:40:16.790Z,16.61
2019-03-22T09:41:16.723Z,16.69
2019-03-22T09:42:16.681Z,16.77
2019-03-22T09:43:16.590Z,16.84
2019-03-22T09:44:16.575Z,16.92
2019-03-22T09:45:16.558Z,16.91
2019-03-22T09:46:16.450Z,16.98
2019-03-22T09:47:16.816Z,16.99
2019-03-22T09:48:16.441Z,17.02
2019-03-22T09:49:16.318Z,17.16
2019-03-22T09:50:16.345Z,17.24
2019-03-22T09:51:16.307Z,17.34
2019-03-22T09:52:16.204Z,17.28
2019-03-22T09:53:16.201Z,17.24
2019-03-22T09:54:16.083Z,17.41
2019-03-22T09:55:16.098Z,17.46
2019-03-22T09:56:16.090Z,17.49
2019-03-22T09:57:15.957Z,17.49
2019-03-22T09:58:15.967Z,17.57
2019-03-22T09:59:15.959Z,17.52
2019-03-22T10:00:15.836Z,17.53
2019-03-22T10:01:23.692Z,17.59
2019-03-22T10:02:15.843Z,17.69
2019-03-22T10:03:15.717Z,17.73
2019-03-22T10:04:17.283Z,17.78
2019-03-22T10:05:15.596Z,17.84
2019-03-22T10:06:15.597Z,17.86
2019-03-22T10:07:15.596Z,17.87
2019-03-22T10:08:15.491Z,17.94
2019-03-22T10:09:15.542Z,18.06
2019-03-22T10:10:15.514Z,18.11
2019-03-22T10:11:15.405Z,18.08
2019-03-22T10:12:15.354Z,18.08
2019-03-22T10:13:15.355Z,18.08
2019-03-22T10:14:15.241Z,18.15
2019-03-22T10:15:15.236Z,18.16
2019-03-22T10:16:15.235Z,18.26
2019-03-22T10:17:15.119Z,18.28
2019-03-22T10:18:15.205Z,18.36
2019-03-22T10:19:15.018Z,18.36
2019-03-22T10:20:14.992Z,18.37
2019-03-22T10:21:22.396Z,18.46
2019-03-22T10:22:14.941Z,18.53
2019-03-22T10:23:14.873Z,18.63
2019-03-22T10:24:14.875Z,18.78
2019-03-22T10:25:14.767Z,18.76
2019-03-22T10:26:14.756Z,18.85
2019-03-22T10:27:14.749Z,18.94
2019-03-22T10:28:14.674Z,18.96
2019-03-22T10:29:14.642Z,19.09
2019-03-22T10:30:14.630Z,19.20
2019-03-22T10:31:14.509Z,19.19
2019-03-22T10:32:14.512Z,19.30
2019-03-22T10:33:22.596Z,19.30
2019-03-22T10:34:14.416Z,19.37
2019-03-22T10:35:25.307Z,19.45
2019-03-22T10:36:14.328Z,19.44
2019-03-22T10:37:14.306Z,19.53
2019-03-22T10:38:16.429Z,19.57
2019-03-22T10:39:14.250Z,19.72
2019-03-22T10:40:14.182Z,19.81
2019-03-22T10:41:14.197Z,19.77
2019-03-22T10:42:14.035Z,19.84
2019-03-22T10:43:14.068Z,19.82
2019-03-22T10:44:14.080Z,19.85
2019-03-22T10:45:13.916Z,19.92
2019-03-22T10:46:13.937Z,19.92
2019-03-22T10:47:14.046Z,19.84
2019-03-22T10:48:13.784Z,20.00
2019-03-22T10:49:13.787Z,20.03
2019-03-22T10:50:13.795Z,20.08
2019-03-22T10:51:13.736Z,20.07
2019-03-22T10:52:13.806Z,20.21
2019-03-22T10:53:13.643Z,20.19
2019-03-22T10:54:13.612Z,20.26
2019-03-22T10:55:28.874Z,20.30
2019-03-22T10:56:13.426Z,20.32
2019-03-22T10:57:13.421Z,20.30
2019-03-22T10:58:20.746Z,20.42
2019-03-22T10:59:13.310Z,20.44
2019-03-22T11:00:13.301Z,20.53
2019-03-22T11:01:13.331Z,20.58
2019-03-22T11:02:13.180Z,20.68
2019-03-22T11:03:13.188Z,20.67
2019-03-22T11:04:13.190Z,20.80
2019-03-22T11:05:17.619Z,20.85
2019-03-22T11:06:13.063Z,20.80
2019-03-22T11:07:13.061Z,20.89
2019-03-22T11:08:12.942Z,20.85
2019-03-22T11:09:12.941Z,21.00
2019-03-22T11:10:13.670Z,21.03
2019-03-22T11:11:12.824Z,20.95
2019-03-22T11:12:12.865Z,21.03
2019-03-22T11:13:12.782Z,21.05
2019-03-22T11:14:12.705Z,21.07
2019-03-22T11:15:12.700Z,21.13
2019-03-22T11:16:12.668Z,21.26
2019-03-22T11:17:12.579Z,21.22
2019-03-22T11:18:12.579Z,21.26
2019-03-22T11:19:12.457Z,21.30
2019-03-22T11:20:12.457Z,21.30
2019-03-22T11:21:12.456Z,21.30
2019-03-22T11:22:12.339Z,21.33
2019-03-22T11:23:12.335Z,21.40
2019-03-22T11:24:12.337Z,21.51
2019-03-22T11:25:12.218Z,21.62
2019-03-22T11:26:12.218Z,21.62
2019-03-22T11:27:13.783Z,21.65
2019-03-22T11:28:12.135Z,21.62
2019-03-22T11:29:12.094Z,21.68
2019-03-22T11:30:12.097Z,21.77
2019-03-22T11:31:11.977Z,21.83
2019-03-22T11:32:12.905Z,21.84
2019-03-22T11:33:11.978Z,21.94
2019-03-22T11:34:11.864Z,21.97
2019-03-22T11:35:11.858Z,22.01
2019-03-22T11:36:11.855Z,21.97
2019-03-22T11:37:11.739Z,22.12
2019-03-22T11:38:11.739Z,22.19
2019-03-22T11:39:15.839Z,22.21
2019-03-22T11:40:11.615Z,22.22
2019-03-22T11:41:11.618Z,22.23
2019-03-22T11:42:11.610Z,22.23
2019-03-22T11:43:11.500Z,22.38
2019-03-22T11:44:11.490Z,22.40
2019-03-22T11:45:11.488Z,22.65
2019-03-22T11:46:11.370Z,22.74
2019-03-22T11:47:11.381Z,22.83
2019-03-22T11:48:11.368Z,23.01
2019-03-22T11:49:11.250Z,23.20
2019-03-22T11:50:11.385Z,23.49
2019-03-22T11:51:11.250Z,23.88
2019-03-22T11:52:11.132Z,24.10
2019-03-22T11:53:11.136Z,24.24
2019-03-22T11:54:11.017Z,24.51
2019-03-22T11:55:11.088Z,24.66
2019-03-22T11:56:11.020Z,24.99
2019-03-22T11:57:10.890Z,25.12
2019-03-22T11:58:10.898Z,25.49
2019-03-22T11:59:10.893Z,25.86
2019-03-22T12:00:10.769Z,26.11
2019-03-22T12:01:19.259Z,26.37
2019-03-22T12:02:10.767Z,26.42
2019-03-22T12:03:10.729Z,26.53
2019-03-22T12:04:11.892Z,27.00
2019-03-22T12:05:10.649Z,27.33
2019-03-22T12:06:10.608Z,27.90
2019-03-22T12:07:10.552Z,28.15
2019-03-22T12:08:10.525Z,28.19
2019-03-22T12:09:10.488Z,28.53
2019-03-22T12:10:10.408Z,28.84
2019-03-22T12:11:10.407Z,29.22
2019-03-22T12:12:10.406Z,29.49
2019-03-22T12:13:10.291Z,29.77
2019-03-22T12:14:10.286Z,29.98
2019-03-22T12:15:10.285Z,30.16
2019-03-22T12:16:10.247Z,30.36
2019-03-22T12:17:10.162Z,30.65
2019-03-22T12:18:10.183Z,30.54
2019-03-22T12:19:10.041Z,30.70
2019-03-22T12:20:10.042Z,30.62
2019-03-22T12:21:10.044Z,30.74
2019-03-22T12:22:09.921Z,30.89
2019-03-22T12:23:09.921Z,31.07
2019-03-22T12:24:09.923Z,31.30
2019-03-22T12:25:09.800Z,31.54
2019-03-22T12:26:09.810Z,31.64
2019-03-22T12:27:09.811Z,31.78
2019-03-22T12:28:09.763Z,31.92
2019-03-22T12:29:09.682Z,32.02
2019-03-22T12:30:09.682Z,32.07
2019-03-22T12:31:09.679Z,32.12
2019-03-22T12:32:09.561Z,32.35
2019-03-22T12:33:09.560Z,32.39
2019-03-22T12:34:09.559Z,32.45
2019-03-22T12:35:09.444Z,32.64
2019-03-22T12:36:09.440Z,32.75
2019-03-22T12:37:09.440Z,32.88
2019-03-22T12:38:09.322Z,33.15
2019-03-22T12:39:09.333Z,33.01
2019-03-22T12:40:09.320Z,33.08
2019-03-22T12:41:09.316Z,33.20
2019-03-22T12:42:09.197Z,33.39
2019-03-22T12:43:09.205Z,33.53
2019-03-22T12:44:09.198Z,33.48
2019-03-22T12:45:09.075Z,33.33
2019-03-22T12:46:09.075Z,33.44
2019-03-22T12:47:09.076Z,33.15
2019-03-22T12:48:08.957Z,33.03
2019-03-22T12:49:08.954Z,33.10
2019-03-22T12:50:08.956Z,33.12
2019-03-22T12:51:08.965Z,33.15
2019-03-22T12:52:08.838Z,33.08
2019-03-22T12:53:08.836Z,32.88
2019-03-22T12:54:08.846Z,32.75
2019-03-22T12:55:08.719Z,32.45
2019-03-22T12:56:08.718Z,32.07
2019-03-22T12:57:08.712Z,31.85
2019-03-22T12:58:08.680Z,31.59
2019-03-22T12:59:08.597Z,31.35
2019-03-22T13:00:08.596Z,31.15
2019-03-22T13:01:10.236Z,31.18
2019-03-22T13:02:08.477Z,31.29
2019-03-22T13:03:08.472Z,31.14
2019-03-22T13:04:08.472Z,30.92
2019-03-22T13:05:08.353Z,30.62
2019-03-22T13:06:08.358Z,30.44
2019-03-22T13:07:08.354Z,30.29
2019-03-22T13:08:08.351Z,30.27
2019-03-22T13:09:08.229Z,30.14
2019-03-22T13:10:08.237Z,29.96
2019-03-22T13:11:08.228Z,29.83
2019-03-22T13:12:08.110Z,29.50
2019-03-22T13:13:08.108Z,29.30